Luis Mena

Chefscout - Cobresal
14 Okt 2027
Donnerstag
Verarbeitung

Persönlichkeit

Anpassungsfähigkeit (3) Ehrgeiz (4) Kontroverse (1) Loyalität (5) Druck (2) Professionalität (7) Fairness (19) Temperament (8)

Profil

Trainerstil Demokratisch
Lizenz Kontinentale B
Entschlossenheit 4
Menschenführung 9
Motivation 4
Disziplin 4
Arbeitszufriedenheit
100%
Ermüdung
0%
Rolle Chefscout
Gehalt 46.1K p/W
Vertrag 14.03.2029

Leistung

Verhalten Gut
Trainingseffektivität
23%
Spielerentwicklung
30%
Verletzungsprävention
50%
Taktische Umsetzung
25%

Letzte Ereignisse

Nahm an einer Scouting-Besprechung teil jetzt
Nahm an einer Scouting-Besprechung teil 7T her
Empfahl ein Transferziel 7T her
Empfahl ein Transferziel 7T her
Nahm an einer Scouting-Besprechung teil 14T her
Empfahl ein Transferziel 14T her
Empfahl ein Transferziel 14T her
Empfahl ein Transferziel 21T her

Aktuell beobachtet

118
Spieler Verein Status Fähigkeit Vertrauen Beobachtet Zuletzt beobachtet Letzte Stimme
Goga Kobiashvili Veres Verhandlung 92 / 92 66% 1 01.06.2027 Befürworten
Edin Višća Progreso Verhandlung 119 / 119 66% 1 01.06.2027 Befürworten
Aidomo Emakhu Oxford United Aktiv 128 / 136 40% 2 31.05.2027 -
Alassana Jatta Notts County Aktiv 96 / 118 40% 2 31.05.2027 -
Jaze Kabia Grimsby Town Aktiv 98 / 86 40% 3 30.05.2027 -
Aaron Drinan Swindon Town Aktiv 117 / 114 40% 5 29.05.2027 -
Ronan Hale Gillingham Aktiv 102 / 118 40% 5 29.05.2027 -
Yousef Salech Cardiff City Aktiv 126 / 124 40% 6 27.05.2027 -
Petar Musa Adana Demirspor Aktiv 131 / 156 40% 2 27.05.2027 -
Richard Koné Queens Park Rangers Aktiv 120 / 125 40% 5 26.05.2027 -
Santiago Pierotti Lecce Aktiv 135 / 136 40% 3 26.05.2027 -
Shayne Lavery Cambridge United Aktiv 118 / 99 40% 5 25.05.2027 -
Christian Saydee Wigan Athletic Aktiv 106 / 122 40% 1 25.05.2027 -
Sam Nombe Milton Keynes Dons Aktiv 101 / 109 40% 7 24.05.2027 -
Giacomo Zecca Torres Aktiv 110 / 94 40% 2 23.05.2027 -
Malik Mothersille Stockport County Aktiv 118 / 122 40% 3 22.05.2027 -
Jonathan Gyan Liberty Professionals Aktiv 90 / 96 40% 2 22.05.2027 -
Aaron Collins Milton Keynes Dons Aktiv 121 / 132 40% 2 21.05.2027 -
Daniel Udoh Salford City Aktiv 109 / 111 40% 4 21.05.2027 -
Tyreece Campbell Charlton Athletic Aktiv 121 / 107 40% 6 18.05.2027 -
Kelly Saravanan Salford City Aktiv 112 / 110 40% 3 18.05.2027 -
Manuel Ospina Cortulua Aktiv 131 / 132 40% 1 18.05.2027 -
Zian Flemming Ipswich Town Aktiv 125 / 140 40% 4 17.05.2027 -
Josh Koroma Leyton Orient Aktiv 105 / 97 40% 4 16.05.2027 -
Kyle Wootton Stockport County Aktiv 109 / 115 40% 3 16.05.2027 -
Adam Idah Swansea City Aktiv 130 / 116 40% 3 10.05.2027 -
Bojan Radulović Huddersfield Town Aktiv 113 / 101 40% 4 09.05.2027 -
Andri Guðjohnsen Blackburn Rovers Aktiv 121 / 137 40% 1 08.05.2027 -
Lorent Tolaj Plymouth Argyle Aktiv 117 / 104 40% 6 06.05.2027 -
Marcus Browne AFC Wimbledon Aktiv 111 / 112 40% 4 06.05.2027 -
Matteo Rover Reggiana Aktiv 113 / 120 40% 1 06.05.2027 -
Dom Ballard Leyton Orient Aktiv 133 / 139 40% 6 05.05.2027 -
Marezi Portsmouth Aktiv 115 / 121 40% 3 05.05.2027 -
Kwame Opoku Asante Kotoko Aktiv 108 / 102 40% 6 03.05.2027 -
Bismark Asante Ashanti Gold Aktiv 97 / 84 40% 1 30.04.2027 -
Silvio Merkaj Vicenza Aktiv 125 / 100 40% 1 29.04.2027 -
Giuseppe Di Serio Spezia Aktiv 123 / 132 40% 2 28.04.2027 -
Stephen Humphrys Bradford City Aktiv 115 / 94 40% 1 28.04.2027 -
Ekain Orobengoa Real Sociedad Aktiv 106 / 105 40% 6 25.04.2027 -
Victor Torp Coventry City Aktiv 139 / 124 40% 1 25.04.2027 -
Lee Bonis Chesterfield Aktiv 110 / 98 40% 1 24.04.2027 -
Harry Leonard Peterborough United Aktiv 115 / 128 40% 2 21.04.2027 -
Will Evans Mansfield Town Aktiv 87 / 84 40% 1 21.04.2027 -
Martin Sekulić Ural Aktiv 118 / 119 40% 5 17.04.2027 -
Robert Mizo Ashanti Gold Aktiv 100 / 100 40% 3 17.04.2027 -
Adolfo Muñoz Ruch Aktiv 109 / 111 40% 5 11.04.2027 -
Callum Lang Preston Aktiv 106 / 108 40% 1 11.04.2027 -
Louis Appéré Cambridge United Aktiv 104 / 113 40% 3 10.04.2027 -
Claudio Villagra Volos NPS Aktiv 103 / 99 40% 4 09.04.2027 -
Jayden Wareham Barnet Aktiv 98 / 105 40% 3 08.04.2027 -
Bradley Fink Wycombe Wanderers Aktiv 97 / 103 40% 3 07.04.2027 -
Lewis McCann Fleetwood Town Aktiv 110 / 87 40% 1 07.04.2027 -
Job Ochieng Real Sociedad Aktiv 103 / 108 40% 4 04.04.2027 -
Guilherme Ankaragucu Aktiv 140 / 112 40% 2 03.04.2027 -
Rayan Bournemouth Aktiv 137 / 127 40% 1 03.04.2027 -
Harry Cornick AFC Wimbledon Aktiv 100 / 115 40% 3 31.03.2027 -
Adnan Courtois KV Oostende Aktiv 137 / 132 40% 6 28.03.2027 -
Callum Stead Barnet Aktiv 84 / 95 40% 1 25.03.2027 -
Rocco Vata Watford Aktiv 112 / 142 40% 1 24.03.2027 -
Tomás González Piast Aktiv 128 / 124 40% 2 23.03.2027 -
Isaac Essien WAFA Aktiv 98 / 100 40% 3 22.03.2027 -
Toni Fruk KV Mechelen Aktiv 142 / 138 40% 1 17.03.2027 -
Friday Ubong Ashanti Gold Aktiv 107 / 91 40% 1 16.03.2027 -
Niall Ennis Blackpool Aktiv 113 / 119 40% 5 12.03.2027 -
Danyil Alefirenko Chornomorets Aktiv 122 / 108 40% 4 12.03.2027 -
Davis Keillor-Dunn Wrexham Aktiv 129 / 127 40% 4 10.03.2027 -
Iwan Morgan Grimsby Town Aktiv 114 / 98 40% 2 08.03.2027 -
Elijah Adebayo Luton Town Aktiv 137 / 106 40% 2 02.03.2027 -
Mees Rijks Bristol Rovers Aktiv 107 / 101 40% 3 01.03.2027 -
Hany Mukhtar Spezia Aktiv 140 / 151 40% 2 28.02.2027 -
Pedro Marques Apollon Aktiv 114 / 123 40% 1 24.02.2027 -
Dany Mota Monza Aktiv 133 / 146 40% 1 22.02.2027 -
Nathan Ordaz Metalist Aktiv 123 / 115 40% 2 17.02.2027 -
Andrés Dieppa Metalurh Zaporizhzhia Aktiv 84 / 96 40% 1 15.02.2027 -
Mathias Jørgensen Blackburn Rovers Aktiv 123 / 134 40% 1 15.02.2027 -
Slobodan Tedić Akron Aktiv 116 / 113 40% 1 13.02.2027 -
Erik Prekop Gornik Zabrze Aktiv 142 / 128 40% 1 12.02.2027 -
Edarlyn Reyes Arsenal Tula Aktiv 109 / 122 40% 1 09.02.2027 -
Samuel Kalu Botev Plovdiv Aktiv 112 / 105 40% 1 05.02.2027 -
Vyacheslav Grulev Nizhniy Novgorod Aktiv 117 / 123 40% 2 02.02.2027 -
Róbert Polievka MTK Budapest Aktiv 109 / 124 40% 1 02.02.2027 -
Sam Bell Bristol City Aktiv 108 / 105 40% 2 01.02.2027 -
Everton Bala Levski Aktiv 126 / 116 40% 1 01.02.2027 -
Nicolás Luján Panserraikos Aktiv 87 / 108 40% 1 31.01.2027 -
Leandro Godoy CSKA Sofia Aktiv 123 / 121 40% 1 31.01.2027 -
Abdallah Gning Banik Ostrava Aktiv 107 / 115 40% 1 28.01.2027 -
Bruno Gomes Valletta Aktiv 95 / 106 40% 1 28.01.2027 -
Agustín Módica Gimnasia y Esgrima Aktiv 116 / 113 40% 1 25.01.2027 -
Juan Cruz Martins Jihlava Aktiv 108 / 118 40% 2 24.01.2027 -
Lincoln Spartak Subotica Aktiv 99 / 103 40% 1 24.01.2027 -
Nicolás Contín MFK Ruzomberok Aktiv 128 / 113 40% 1 23.01.2027 -
Kenan Dervišagić Floriana Aktiv 110 / 86 40% 1 23.01.2027 -
Alexandr Yushin Torpedo Moscow Aktiv 112 / 95 40% 1 22.01.2027 -
Rodrigo Bogarín Barracas Central Aktiv 117 / 125 40% 1 20.01.2027 -
Robert Murić Floriana Aktiv 92 / 114 40% 1 17.01.2027 -
Carlos Guerreño Slavia Sofia Aktiv 114 / 104 40% 1 17.01.2027 -
Yeangel Montero Naxxar Lions Aktiv 116 / 106 40% 1 15.01.2027 -
Gabriel Charpentier Cracovia Aktiv 120 / 99 40% 1 13.01.2027 -
Santiago Rodríguez Gimnasia y Esgrima Aktiv 116 / 109 40% 1 06.01.2027 -
Alan Soñora Cerro Porteno Aktiv 116 / 113 40% 2 09.08.2026 -
Mauricio Márquez Caracas Aktiv 99 / 104 40% 1 09.08.2026 -
Capa Ceuta Aktiv 105 / 84 40% 1 09.08.2026 -
Lucas Sanabria Libertad Aktiv 117 / 100 40% 1 08.08.2026 -
Alejandro Samudio Nacional Aktiv 107 / 116 40% 1 08.08.2026 -
George Ayine Metropolitanos Aktiv 98 / 100 40% 1 07.08.2026 -
Marcos Cuenca Zaragoza Aktiv 95 / 114 40% 1 07.08.2026 -
Héber García Portuguesa Aktiv 101 / 89 40% 1 07.08.2026 -
José Luján Alianza Atletico Aktiv 104 / 119 40% 1 06.08.2026 -
Jean Franco Fuentes Metropolitanos Aktiv 107 / 113 40% 1 06.08.2026 -
Nelson Cabanillas Melgar Aktiv 112 / 111 40% 1 06.08.2026 -
Luis Guevara Real Cartagena Aktiv 99 / 109 40% 1 04.08.2026 -
Gonzalo Errecalde Gimnasia La Plata Aktiv 117 / 119 40% 1 03.08.2026 -
Mateo Seoane Gimnasia La Plata Aktiv 118 / 119 40% 1 03.08.2026 -
Maximiliano Luayza Koot Tristán Suárez Aktiv 104 / 101 40% 1 02.08.2026 -
Gino Barbieri Almagro Aktiv 103 / 106 40% 1 02.08.2026 -
David López Mallorca Aktiv 120 / 104 40% 1 02.08.2026 -
Paolo Reyna Universitario Aktiv 118 / 128 40% 1 01.08.2026 -
Fermín Antonini Gimnasia y Esgrima Aktiv 110 / 117 40% 1 01.08.2026 -